Tuesday, October 21, 2014
00:34 UTC
  |  Log In   |  Register Free
Airport Search:

Fort Smith Regional Airport
(KFSM)

FAA data valid effective September 18, 2014 - November 13, 2014 (unless otherwise noted).

 
 
 
 
 
 
 
 
 
 
 
 
 
 

Current Aviation Weather for Fort Smith Regional Airport (KFSM)

The most recent METAR observation for KFSM was updated at: 0011
METAR Summary (Translated METAR)
KFSM
202353Z 13003KT 10SM BKN038 19/14 A3004 RMK AO2 SLP169 T01890144 10233 20178 53005
KJSV
202355Z AUTO 00000KT 10SM SCT040 19/16 A3004 RMK AO2
(22.2 nm NW from KFSM)
KRKR
202355Z AUTO 00000KT 10SM CLR 20/16 A3002 RMK AO2 T01990156 10233 20185
(22.6 nm SW from KFSM)
TAF
No TAF information found within 50 nm of KFSM
  Airport Weather Conditions for KFSM

 Current Weather at FSM
66° F
Mostly Cloudy
Southeast winds at 3.5 mph
FSM NOAA Radar

Pressure: 30.04 in
Humidity: 75%
Wind: Southeast at 3.5 MPH (3 KT)
Dew Point: 57.9°F
Visibility: 10.00 mi


Airport Weather Forecast for KFSM

Translated METAR and TAF for KFSM
Translated METAR for KFSM (0029 UTC 21 October 2014)
found at http://aviationweather.gov/adds/metars/
 
METAR text: KFSM 202353Z 13003KT 10SM BKN038 19/14 A3004 RMK AO2 SLP169 T01890144 10233 20178 53005
Conditions at: KFSM (FORT SMITH , AR, US) observed 2353 UTC 20 October 2014
Temperature: 18.9°C (66°F)
Dewpoint: 14.4°C (58°F) [RH = 75%]
Pressure (altimeter): 30.04 inches Hg (1017.4 mb)
[Sea-level pressure: 1016.9 mb]
Winds: from the SE (130 degrees) at 3 MPH (3 knots; 1.6 m/s)
Visibility: 10 or more miles (16+ km)
Ceiling: 3800 feet AGL
Clouds: broken clouds at 3800 feet AGL
Weather: no significant weather observed at this time
Translated TAF for KFSM
Forecast for: KFSM (FORT SMITH , AR, US)
TAF Text: KFSM 202338Z 2100/2124 00000KT P6SM SKC
Forecast period: 0000 to 0700 UTC 21 October 2014
Forecast type: FROM: standard forecast or significant change
Winds: calm
Visibility: 6 or more miles (10+ km)
Clouds: clear skies
Weather: no significant weather forecast for this period
TAF Text: FM210700 00000KT 4SM BR SKC
Forecast period: 0700 to 1100 UTC 21 October 2014
Forecast type: FROM: standard forecast or significant change
Winds: calm
Visibility: 4 miles (6 km)
Clouds: clear skies
Weather: BR  (mist)
TAF Text: FM211100 00000KT 1/4SM FG BKN002
Forecast period: 1100 to 1400 UTC 21 October 2014
Forecast type: FROM: standard forecast or significant change
Winds: calm
Visibility: 0.25 miles (0.40 km)
Ceiling: 200 feet AGL
Clouds: broken clouds at 200 feet AGL
Weather: FG  (fog)
TAF Text: FM211400 07003KT 4SM BR BKN250
Forecast period: 1400 to 1500 UTC 21 October 2014
Forecast type: FROM: standard forecast or significant change
Winds: from the ENE (70 degrees) at 3 MPH (3 knots; 1.6 m/s)
Visibility: 4 miles (6 km)
Ceiling: 25000 feet AGL
Clouds: broken clouds at 25000 feet AGL
Weather: BR  (mist)
TAF Text: FM211500 09004KT P6SM BKN250
Forecast period: 1500 UTC 21 October 2014 to 0000 UTC 22 October 2014
Forecast type: FROM: standard forecast or significant change
Winds: from the E (90 degrees) at 5 MPH (4 knots; 2.1 m/s)
Visibility: 6 or more miles (10+ km)
Ceiling: 25000 feet AGL
Clouds: broken clouds at 25000 feet AGL
Weather: no significant weather forecast for this period

Find All Airport Services Find A Hotel Find A Rental Car Find A Golf Course Find A Restaurant $100 Hamburger



FBO's on the Field
FBO Company Facility Photos Services Transportation Aviation Fuel Prices: Prices include tax
Catering Weather Repair Courtesy Rental Type 100LL JetA JetA+ MOGAS 8087
 
TAC Air - FSM

This FBO has not yet been rated
FS:Independent
Last Updated: Sep-18
Login to update fuel prices
SS:
Contact TAC Air - FSMMore FBO Information
 
Add another FBO Facility Photos Catering Weather Repair Courtesy Rental Type 100LL JetA JetA+ MOGAS 8087
Services Transportation Aviation Fuel Prices: Prices include tax


model-print
model-print
model-print
model-print